createdAt,value
2019-01-31T00:01:36.177Z,-0.20
2019-01-31T00:07:10.249Z,-0.20
2019-01-31T00:12:51.415Z,-0.30
2019-01-31T00:18:19.818Z,-0.40
2019-01-31T00:24:22.426Z,-0.40
2019-01-31T00:29:59.013Z,-0.40
2019-01-31T00:35:29.870Z,-0.50
2019-01-31T00:41:03.184Z,-0.60
2019-01-31T00:46:45.409Z,-0.60
2019-01-31T00:52:43.556Z,-0.60
2019-01-31T00:58:09.247Z,-0.70
2019-01-31T01:03:44.407Z,-0.70
2019-01-31T01:09:07.641Z,-0.70
2019-01-31T01:14:51.422Z,-0.80
2019-01-31T01:20:33.888Z,-0.80
2019-01-31T01:26:21.995Z,-0.70
2019-01-31T01:32:16.711Z,-0.60
2019-01-31T01:38:02.647Z,-0.60
2019-01-31T01:43:20.353Z,-0.60
2019-01-31T01:48:34.287Z,-0.60
2019-01-31T01:54:03.685Z,-0.60
2019-01-31T01:59:48.290Z,-0.60
2019-01-31T02:05:30.209Z,-0.60
2019-01-31T02:11:08.662Z,-0.60
2019-01-31T02:16:57.404Z,-0.60
2019-01-31T02:22:57.481Z,-0.50
2019-01-31T02:28:28.014Z,-0.50
2019-01-31T02:34:00.640Z,-0.50
2019-01-31T02:39:23.285Z,-0.50
2019-01-31T02:44:59.981Z,-0.40
2019-01-31T02:50:44.146Z,-0.50
2019-01-31T02:56:31.954Z,-0.40
2019-01-31T03:01:53.159Z,-0.40
2019-01-31T03:07:51.391Z,-0.40
2019-01-31T03:13:22.812Z,-0.40
2019-01-31T03:18:42.291Z,-0.40
2019-01-31T03:24:23.053Z,-0.40
2019-01-31T03:30:03.089Z,-0.30
2019-01-31T03:35:21.990Z,-0.30
2019-01-31T03:41:06.628Z,-0.30
2019-01-31T03:47:04.330Z,-0.30
2019-01-31T03:52:47.568Z,-0.30
2019-01-31T03:58:13.290Z,-0.30
2019-01-31T04:03:57.090Z,-0.30
2019-01-31T04:09:02.118Z,-0.30
2019-01-31T04:14:07.086Z,-0.30
2019-01-31T04:19:12.058Z,-0.20
2019-01-31T04:24:17.050Z,-0.20
2019-01-31T04:29:22.022Z,-0.20
2019-01-31T04:34:27.005Z,-0.20
2019-01-31T04:39:31.971Z,-0.20
2019-01-31T04:44:36.954Z,-0.20
2019-01-31T04:49:41.981Z,-0.10
2019-01-31T04:54:46.964Z,-0.10
2019-01-31T04:59:51.940Z,-0.10
2019-01-31T05:04:56.971Z,-0.10
2019-01-31T05:10:01.969Z,-0.10
2019-01-31T05:15:08.611Z,0.00
2019-01-31T05:20:16.064Z,0.00
2019-01-31T05:25:21.051Z,0.10
2019-01-31T05:30:26.022Z,0.10
2019-01-31T05:35:31.007Z,0.10
2019-01-31T05:40:35.996Z,0.00
2019-01-31T05:45:40.999Z,-0.10
2019-01-31T05:50:45.982Z,-0.10
2019-01-31T05:55:51.029Z,-0.40
2019-01-31T06:00:56.023Z,-0.70
2019-01-31T06:06:01.000Z,-0.90
2019-01-31T06:11:07.481Z,-1.10
2019-01-31T06:16:12.627Z,-1.10
2019-01-31T06:21:17.614Z,-0.90
2019-01-31T06:26:23.619Z,-0.80
2019-01-31T06:31:28.615Z,-0.60
2019-01-31T06:36:33.591Z,-0.60
2019-01-31T06:41:38.566Z,-0.50
2019-01-31T06:46:43.608Z,-0.40
2019-01-31T06:51:48.587Z,-0.50
2019-01-31T06:56:53.566Z,-0.40
2019-01-31T07:01:58.547Z,-0.40
2019-01-31T07:07:03.562Z,-0.30
2019-01-31T07:12:08.552Z,-0.30
2019-01-31T07:17:13.524Z,-0.30
2019-01-31T07:22:18.499Z,-0.30
2019-01-31T07:27:23.467Z,-0.30
2019-01-31T07:32:28.470Z,-0.20
2019-01-31T07:37:33.426Z,-0.10
2019-01-31T07:42:38.460Z,0.00
2019-01-31T07:47:43.431Z,0.10
2019-01-31T07:52:48.428Z,0.20
2019-01-31T07:57:53.390Z,0.20
2019-01-31T08:02:58.376Z,0.20
2019-01-31T08:08:03.415Z,0.20
2019-01-31T08:13:08.999Z,0.30
2019-01-31T08:18:13.993Z,0.30
2019-01-31T08:23:18.975Z,0.40
2019-01-31T08:28:23.965Z,0.50
2019-01-31T08:33:28.979Z,0.60
2019-01-31T08:38:36.691Z,0.80
2019-01-31T08:43:40.624Z,0.80
2019-01-31T08:48:45.625Z,0.80
2019-01-31T08:53:50.617Z,0.90
2019-01-31T08:58:55.596Z,0.90
2019-01-31T09:04:00.580Z,1.00
2019-01-31T09:09:10.248Z,1.10
2019-01-31T09:14:15.254Z,1.10
2019-01-31T09:19:20.245Z,1.20
2019-01-31T09:24:51.754Z,1.20
2019-01-31T09:30:25.318Z,1.20
2019-01-31T09:35:48.186Z,1.40
2019-01-31T09:41:28.251Z,1.40
2019-01-31T09:46:57.614Z,1.40
2019-01-31T09:52:54.378Z,1.40
2019-01-31T09:58:33.698Z,1.30
2019-01-31T10:04:19.391Z,1.30
2019-01-31T10:09:52.029Z,1.40
2019-01-31T10:15:28.267Z,1.40
2019-01-31T10:21:15.070Z,1.40
2019-01-31T10:26:30.365Z,1.30
2019-01-31T10:32:18.273Z,1.30
2019-01-31T10:38:04.227Z,1.30
2019-01-31T10:43:36.790Z,1.40
2019-01-31T10:49:04.517Z,1.40
2019-01-31T10:54:45.224Z,1.40
2019-01-31T11:00:22.469Z,1.30
2019-01-31T11:06:11.820Z,1.20
2019-01-31T11:12:10.274Z,1.20
2019-01-31T11:17:30.815Z,1.20
2019-01-31T11:23:07.198Z,1.30
2019-01-31T11:28:47.975Z,1.40
2019-01-31T11:34:19.329Z,1.50
2019-01-31T11:39:54.812Z,1.50
2019-01-31T11:45:52.760Z,1.60
2019-01-31T11:51:33.643Z,1.70
2019-01-31T11:57:11.632Z,1.70
2019-01-31T12:02:16.728Z,1.60
2019-01-31T12:07:21.748Z,1.60
2019-01-31T12:12:26.720Z,1.60
2019-01-31T12:17:31.713Z,1.50
2019-01-31T12:22:36.703Z,1.60
2019-01-31T12:27:41.699Z,1.90
2019-01-31T12:32:46.695Z,1.90
2019-01-31T12:37:51.666Z,1.80
2019-01-31T12:42:56.643Z,1.80
2019-01-31T12:48:01.664Z,1.70
2019-01-31T12:53:06.646Z,1.80
2019-01-31T12:58:11.636Z,1.90
2019-01-31T13:03:16.895Z,2.10
2019-01-31T13:08:21.915Z,2.10
2019-01-31T13:13:26.912Z,2.10
2019-01-31T13:18:31.908Z,2.10
2019-01-31T13:23:36.890Z,1.80
2019-01-31T13:28:41.888Z,1.70
2019-01-31T13:33:46.972Z,1.60
2019-01-31T13:38:52.081Z,1.70
2019-01-31T13:43:57.904Z,1.60
2019-01-31T13:49:03.778Z,1.70
2019-01-31T13:54:11.223Z,1.60
2019-01-31T13:59:16.127Z,1.60
2019-01-31T14:04:21.259Z,1.50
2019-01-31T14:09:26.248Z,1.60
2019-01-31T14:14:31.238Z,1.70
2019-01-31T14:19:36.283Z,2.00
2019-01-31T14:24:43.782Z,2.10
2019-01-31T14:29:48.057Z,2.10
2019-01-31T14:34:53.099Z,1.90
2019-01-31T14:39:58.393Z,1.70
2019-01-31T14:45:03.570Z,1.50
2019-01-31T14:50:12.351Z,1.30
2019-01-31T14:55:17.618Z,1.10
2019-01-31T15:00:25.008Z,1.00
2019-01-31T15:05:30.304Z,0.80
2019-01-31T15:10:35.714Z,0.70
2019-01-31T15:15:40.941Z,0.60
2019-01-31T15:20:46.837Z,0.50
2019-01-31T15:25:53.574Z,0.30
2019-01-31T15:30:58.534Z,0.20
2019-01-31T15:36:03.589Z,0.10
2019-01-31T15:41:08.780Z,-0.10
2019-01-31T15:46:13.768Z,-0.20
2019-01-31T15:51:18.762Z,-0.40
2019-01-31T15:56:23.790Z,-0.50
2019-01-31T16:01:30.627Z,-0.70
2019-01-31T16:06:35.619Z,-0.80
2019-01-31T16:11:40.628Z,-0.90
2019-01-31T16:16:45.620Z,-1.00
2019-01-31T16:21:50.613Z,-1.20
2019-01-31T16:26:55.607Z,-1.20
2019-01-31T16:32:00.608Z,-1.20
2019-01-31T16:37:06.262Z,-1.00
2019-01-31T16:42:11.256Z,-0.80
2019-01-31T16:47:16.252Z,-0.60
2019-01-31T16:52:21.250Z,-0.50
2019-01-31T16:57:26.242Z,-0.40
2019-01-31T17:02:31.236Z,-0.30
2019-01-31T17:07:36.282Z,-0.20
2019-01-31T17:12:41.286Z,-0.20
2019-01-31T17:17:46.559Z,-0.30
2019-01-31T17:22:51.559Z,-0.60
2019-01-31T17:27:56.568Z,-0.60
2019-01-31T17:33:01.565Z,-0.60
2019-01-31T17:38:06.853Z,-0.60
2019-01-31T17:43:13.116Z,-0.50
2019-01-31T17:48:18.114Z,-0.40
2019-01-31T17:53:23.089Z,-0.30
2019-01-31T17:58:28.088Z,-0.20
2019-01-31T18:03:33.098Z,-0.10
2019-01-31T18:08:38.148Z,-0.10
2019-01-31T18:13:43.146Z,0.00
2019-01-31T18:18:48.124Z,0.00
2019-01-31T18:23:53.099Z,-0.10
2019-01-31T18:28:58.083Z,-0.10
2019-01-31T18:34:03.081Z,-0.20
2019-01-31T18:39:09.775Z,-0.30
2019-01-31T18:44:14.774Z,-0.30
2019-01-31T18:49:19.776Z,-0.30
2019-01-31T18:54:24.761Z,-0.30
2019-01-31T18:59:29.751Z,-0.30
2019-01-31T19:04:34.752Z,-0.30
2019-01-31T19:09:39.819Z,-0.30
2019-01-31T19:14:44.895Z,-0.20
2019-01-31T19:19:49.904Z,-0.20
2019-01-31T19:24:54.975Z,-0.10
2019-01-31T19:30:00.172Z,0.00
2019-01-31T19:35:06.347Z,0.10
2019-01-31T19:40:14.064Z,0.10
